createdAt,value
2018-12-26T00:01:00.448Z,49.90
2018-12-26T00:03:27.115Z,50.00
2018-12-26T00:05:53.774Z,50.00
2018-12-26T00:08:20.429Z,50.00
2018-12-26T00:10:47.078Z,50.00
2018-12-26T00:13:13.741Z,50.00
2018-12-26T00:15:40.402Z,50.00
2018-12-26T00:18:07.044Z,50.00
2018-12-26T00:20:33.737Z,50.00
2018-12-26T00:23:00.609Z,50.00
2018-12-26T00:25:27.289Z,49.90
2018-12-26T00:27:53.944Z,49.90
2018-12-26T00:30:20.596Z,50.00
2018-12-26T00:32:47.288Z,50.00
2018-12-26T00:35:13.944Z,50.00
2018-12-26T00:37:40.617Z,50.00
2018-12-26T00:40:07.267Z,50.00
2018-12-26T00:42:33.928Z,50.00
2018-12-26T00:45:00.564Z,50.00
2018-12-26T00:47:27.217Z,50.00
2018-12-26T00:49:53.893Z,50.00
2018-12-26T00:52:20.552Z,50.00
2018-12-26T00:54:47.222Z,50.00
2018-12-26T00:57:15.755Z,50.00
2018-12-26T00:59:40.583Z,50.10
2018-12-26T01:02:07.244Z,50.00
2018-12-26T01:04:33.900Z,50.00
2018-12-26T01:07:00.565Z,50.10
2018-12-26T01:09:27.221Z,50.10
2018-12-26T01:11:53.888Z,50.00
2018-12-26T01:14:20.556Z,50.00
2018-12-26T01:16:47.212Z,50.10
2018-12-26T01:19:13.862Z,50.00
2018-12-26T01:21:40.508Z,50.00
2018-12-26T01:24:07.161Z,50.00
2018-12-26T01:26:33.865Z,50.10
2018-12-26T01:29:00.514Z,50.10
2018-12-26T01:31:27.173Z,50.10
2018-12-26T01:33:53.824Z,50.10
2018-12-26T01:36:20.469Z,50.10
2018-12-26T01:38:47.132Z,50.10
2018-12-26T01:41:13.773Z,50.10
2018-12-26T01:43:40.512Z,50.10
2018-12-26T01:46:07.156Z,50.10
2018-12-26T01:48:33.790Z,50.10
2018-12-26T01:51:00.432Z,50.20
2018-12-26T01:53:27.089Z,50.10
2018-12-26T01:55:54.572Z,50.20
2018-12-26T01:58:21.230Z,50.20
2018-12-26T02:00:47.879Z,50.20
2018-12-26T02:03:14.525Z,50.20
2018-12-26T02:05:41.177Z,50.10
2018-12-26T02:08:07.837Z,50.10
2018-12-26T02:10:34.481Z,50.10
2018-12-26T02:13:01.128Z,50.20
2018-12-26T02:15:27.765Z,50.10
2018-12-26T02:17:54.437Z,50.20
2018-12-26T02:20:21.105Z,50.10
2018-12-26T02:22:47.752Z,50.20
2018-12-26T02:25:14.427Z,50.20
2018-12-26T02:27:41.096Z,50.20
2018-12-26T02:30:07.743Z,50.20
2018-12-26T02:32:34.409Z,50.20
2018-12-26T02:35:01.064Z,50.20
2018-12-26T02:37:28.512Z,50.20
2018-12-26T02:39:55.161Z,50.30
2018-12-26T02:42:21.835Z,50.20
2018-12-26T02:44:48.488Z,50.20
2018-12-26T02:47:15.128Z,50.20
2018-12-26T02:49:41.779Z,50.20
2018-12-26T02:52:08.442Z,50.20
2018-12-26T02:54:35.091Z,50.20
2018-12-26T02:57:01.759Z,50.20
2018-12-26T02:59:28.426Z,50.20
2018-12-26T03:01:55.139Z,50.20
2018-12-26T03:04:21.789Z,50.20
2018-12-26T03:06:48.433Z,50.20
2018-12-26T03:09:15.073Z,50.20
2018-12-26T03:11:41.716Z,50.20
2018-12-26T03:14:08.362Z,50.20
2018-12-26T03:16:35.027Z,50.30
2018-12-26T03:19:01.687Z,50.20
2018-12-26T03:21:28.357Z,50.20
2018-12-26T03:23:55.049Z,50.20
2018-12-26T03:26:21.714Z,50.20
2018-12-26T03:28:48.605Z,50.20
2018-12-26T03:31:15.257Z,50.30
2018-12-26T03:33:41.920Z,50.30
2018-12-26T03:36:08.604Z,50.20
2018-12-26T03:38:35.261Z,50.30
2018-12-26T03:41:01.919Z,50.20
2018-12-26T03:43:28.584Z,50.20
2018-12-26T03:45:55.235Z,50.20
2018-12-26T03:48:21.917Z,50.30
2018-12-26T03:50:48.564Z,50.30
2018-12-26T03:53:15.217Z,50.30
2018-12-26T03:55:41.918Z,50.30
2018-12-26T03:58:08.559Z,50.30
2018-12-26T04:00:35.214Z,50.20
2018-12-26T04:03:01.859Z,50.20
2018-12-26T04:05:28.504Z,50.30
2018-12-26T04:07:55.412Z,50.30
2018-12-26T04:10:22.088Z,50.30
2018-12-26T04:12:48.726Z,50.30
2018-12-26T04:15:15.413Z,50.30
2018-12-26T04:17:42.088Z,50.30
2018-12-26T04:20:08.750Z,50.30
2018-12-26T04:22:35.425Z,50.30
2018-12-26T04:25:02.078Z,50.30
2018-12-26T04:27:28.746Z,50.30
2018-12-26T04:29:55.416Z,50.30
2018-12-26T04:32:22.083Z,50.30
2018-12-26T04:34:48.729Z,50.30
2018-12-26T04:37:15.373Z,50.30
2018-12-26T04:39:42.021Z,50.40
2018-12-26T04:42:08.680Z,50.30
2018-12-26T04:44:35.327Z,50.40
2018-12-26T04:47:01.972Z,50.30
2018-12-26T04:49:28.637Z,50.40
2018-12-26T04:51:55.293Z,50.30
2018-12-26T04:54:21.952Z,50.30
2018-12-26T04:56:48.604Z,50.40
2018-12-26T04:59:15.249Z,50.40
2018-12-26T05:01:42.216Z,50.40
2018-12-26T05:04:08.595Z,50.40
2018-12-26T05:06:35.259Z,50.40
2018-12-26T05:09:02.080Z,50.50
2018-12-26T05:11:28.734Z,50.40
2018-12-26T05:13:55.384Z,50.50
2018-12-26T05:16:22.035Z,50.50
2018-12-26T05:18:48.701Z,50.50
2018-12-26T05:21:15.381Z,50.50
2018-12-26T05:23:42.049Z,50.50
2018-12-26T05:26:08.697Z,50.50
2018-12-26T05:28:35.372Z,50.50
2018-12-26T05:31:02.007Z,50.60
2018-12-26T05:33:28.668Z,50.50
2018-12-26T05:35:55.321Z,51.10
2018-12-26T05:38:22.072Z,50.60
2018-12-26T05:40:48.648Z,50.50
2018-12-26T05:43:15.282Z,50.60
2018-12-26T05:45:41.969Z,50.60
2018-12-26T05:48:08.639Z,50.60
2018-12-26T05:50:35.290Z,50.70
2018-12-26T05:53:01.949Z,50.60
2018-12-26T05:55:28.621Z,50.60
2018-12-26T05:57:55.278Z,50.60
2018-12-26T06:00:21.933Z,50.60
2018-12-26T06:02:48.608Z,50.70
2018-12-26T06:05:15.283Z,50.80
2018-12-26T06:07:41.929Z,50.60
2018-12-26T06:10:08.608Z,50.70
2018-12-26T06:12:35.252Z,50.70
2018-12-26T06:15:01.934Z,50.70
2018-12-26T06:17:28.572Z,50.80
2018-12-26T06:19:55.214Z,50.70
2018-12-26T06:22:21.857Z,50.70
2018-12-26T06:24:48.508Z,50.80
2018-12-26T06:27:15.165Z,50.70
2018-12-26T06:29:42.036Z,50.80
2018-12-26T06:32:08.729Z,50.80
2018-12-26T06:34:35.380Z,50.80
2018-12-26T06:37:02.041Z,50.80
2018-12-26T06:39:28.685Z,50.80
2018-12-26T06:41:55.341Z,50.80
2018-12-26T06:44:22.000Z,50.90
2018-12-26T06:46:48.648Z,50.90
2018-12-26T06:49:15.305Z,50.90
2018-12-26T06:51:41.977Z,50.90
2018-12-26T06:54:08.637Z,50.90
2018-12-26T06:56:35.301Z,50.90
2018-12-26T06:59:02.017Z,50.90
2018-12-26T07:01:28.687Z,51.00
2018-12-26T07:03:55.348Z,50.90
2018-12-26T07:06:22.000Z,50.90
2018-12-26T07:08:48.671Z,51.00
2018-12-26T07:11:15.314Z,50.90
2018-12-26T07:13:41.986Z,51.00
2018-12-26T07:16:08.632Z,51.00
2018-12-26T07:18:35.281Z,50.90
2018-12-26T07:21:01.963Z,51.00
2018-12-26T07:23:28.618Z,51.00
2018-12-26T07:25:55.265Z,50.90
2018-12-26T07:28:21.909Z,51.00
2018-12-26T07:30:48.565Z,51.00
2018-12-26T07:33:15.224Z,51.00
2018-12-26T07:35:41.879Z,51.00
2018-12-26T07:38:08.549Z,51.00
2018-12-26T07:40:35.220Z,51.10
2018-12-26T07:43:01.865Z,51.10
2018-12-26T07:45:28.542Z,51.10
2018-12-26T07:47:55.196Z,51.10
2018-12-26T07:50:22.130Z,51.10
2018-12-26T07:52:48.798Z,51.10
2018-12-26T07:55:15.659Z,51.10
2018-12-26T07:57:42.326Z,51.10
2018-12-26T08:00:09.030Z,51.20
2018-12-26T08:02:35.676Z,51.20
2018-12-26T08:05:02.560Z,51.10
2018-12-26T08:07:29.225Z,51.20
2018-12-26T08:09:55.898Z,51.20
2018-12-26T08:12:22.560Z,51.20
2018-12-26T08:14:49.226Z,51.10
2018-12-26T08:17:15.877Z,51.10
2018-12-26T08:19:42.541Z,51.20
2018-12-26T08:22:09.188Z,51.20
2018-12-26T08:24:35.836Z,51.20
2018-12-26T08:27:02.546Z,51.20
2018-12-26T08:29:29.204Z,51.20
2018-12-26T08:31:55.910Z,51.20
2018-12-26T08:34:22.588Z,51.30
2018-12-26T08:36:49.224Z,51.30
2018-12-26T08:39:15.875Z,51.20
2018-12-26T08:41:42.538Z,51.30
2018-12-26T08:44:09.176Z,51.30
2018-12-26T08:46:35.844Z,51.30
2018-12-26T08:49:02.501Z,51.30
2018-12-26T08:51:29.144Z,51.30
2018-12-26T08:53:55.805Z,51.30
2018-12-26T08:56:22.693Z,51.40
2018-12-26T08:58:49.341Z,51.40
2018-12-26T09:01:16.229Z,51.30
2018-12-26T09:03:42.873Z,51.40
2018-12-26T09:06:09.540Z,51.40
2018-12-26T09:08:36.208Z,51.40
2018-12-26T09:11:02.879Z,51.40
2018-12-26T09:13:29.556Z,51.50
2018-12-26T09:15:56.220Z,51.40
2018-12-26T09:18:22.873Z,51.40
2018-12-26T09:20:49.557Z,51.40
2018-12-26T09:23:16.230Z,51.50
2018-12-26T09:25:43.868Z,51.50
2018-12-26T09:28:10.914Z,51.50
2018-12-26T09:30:37.578Z,51.60
2018-12-26T09:33:04.249Z,51.60
2018-12-26T09:35:30.889Z,51.60
2018-12-26T09:37:57.536Z,51.50
2018-12-26T09:40:24.219Z,51.60
2018-12-26T09:42:50.889Z,51.70
2018-12-26T09:45:17.536Z,51.60
2018-12-26T09:47:44.199Z,51.60
2018-12-26T09:50:10.853Z,51.60
2018-12-26T09:52:37.521Z,51.60
2018-12-26T09:55:04.276Z,51.70
2018-12-26T09:57:30.933Z,51.70
2018-12-26T09:59:57.612Z,51.60
2018-12-26T10:02:24.249Z,51.60
2018-12-26T10:04:50.917Z,51.60
2018-12-26T10:07:17.588Z,51.70
2018-12-26T10:09:44.253Z,51.70
2018-12-26T10:12:10.893Z,51.80
2018-12-26T10:14:37.575Z,51.70
2018-12-26T10:17:04.244Z,51.80
2018-12-26T10:19:30.883Z,51.70
2018-12-26T10:21:57.552Z,51.70
2018-12-26T10:24:24.197Z,51.80
2018-12-26T10:26:50.857Z,51.80
2018-12-26T10:29:17.509Z,51.80
2018-12-26T10:31:44.161Z,51.80
2018-12-26T10:34:10.793Z,51.80
2018-12-26T10:36:37.449Z,51.80
2018-12-26T10:39:05.305Z,51.90
2018-12-26T10:41:31.958Z,51.80
2018-12-26T10:43:58.620Z,51.80
2018-12-26T10:46:25.292Z,51.80
2018-12-26T10:48:51.942Z,51.80
2018-12-26T10:51:18.644Z,51.90
2018-12-26T10:53:45.305Z,51.90
2018-12-26T10:56:11.976Z,51.90
2018-12-26T10:58:38.669Z,51.90
2018-12-26T11:01:05.312Z,51.90
2018-12-26T11:03:31.960Z,51.90
2018-12-26T11:05:58.680Z,51.90
2018-12-26T11:08:25.324Z,51.90
2018-12-26T11:10:51.976Z,52.00
2018-12-26T11:13:18.630Z,52.00
2018-12-26T11:15:45.285Z,52.10
2018-12-26T11:18:12.024Z,52.00
2018-12-26T11:20:38.667Z,52.00
2018-12-26T11:23:05.320Z,52.00
2018-12-26T11:25:31.996Z,52.10
2018-12-26T11:27:58.677Z,52.00
2018-12-26T11:30:25.325Z,52.00
2018-12-26T11:32:51.972Z,52.10
2018-12-26T11:35:18.656Z,52.10
2018-12-26T11:37:45.326Z,52.10
2018-12-26T11:40:11.992Z,52.00
2018-12-26T11:42:38.627Z,52.10
2018-12-26T11:45:05.328Z,52.20
2018-12-26T11:47:31.960Z,52.20
2018-12-26T11:49:58.632Z,52.20
2018-12-26T11:52:25.295Z,52.10
2018-12-26T11:54:51.970Z,52.20
2018-12-26T11:57:18.653Z,52.80
2018-12-26T11:59:45.327Z,52.30
2018-12-26T12:02:20.364Z,52.30
2018-12-26T12:04:38.732Z,52.20
2018-12-26T12:07:05.387Z,52.20
2018-12-26T12:09:32.046Z,52.30
2018-12-26T12:11:58.713Z,52.30
2018-12-26T12:14:25.403Z,52.20
2018-12-26T12:16:52.073Z,52.20
2018-12-26T12:19:18.721Z,52.20
2018-12-26T12:21:45.408Z,52.30
2018-12-26T12:24:12.068Z,52.30
2018-12-26T12:26:38.741Z,52.40
2018-12-26T12:29:05.408Z,52.30
2018-12-26T12:31:32.184Z,52.40
2018-12-26T12:33:58.833Z,52.40
2018-12-26T12:36:25.707Z,52.40
2018-12-26T12:38:52.389Z,52.40
2018-12-26T12:41:19.044Z,52.40
2018-12-26T12:43:45.705Z,52.50
2018-12-26T12:46:12.376Z,52.40
2018-12-26T12:48:39.133Z,52.40
2018-12-26T12:51:05.799Z,52.50
2018-12-26T12:53:32.477Z,52.50
2018-12-26T12:55:59.161Z,52.50
2018-12-26T12:58:25.821Z,52.50
2018-12-26T13:00:52.514Z,52.50
2018-12-26T13:03:19.413Z,52.60
2018-12-26T13:05:46.076Z,52.60
2018-12-26T13:08:13.319Z,52.60
2018-12-26T13:10:39.404Z,52.60
2018-12-26T13:13:06.076Z,52.50
2018-12-26T13:15:32.749Z,52.60
2018-12-26T13:17:59.390Z,52.50
2018-12-26T13:20:26.047Z,52.50
2018-12-26T13:22:52.748Z,52.50
2018-12-26T13:25:19.444Z,52.60
2018-12-26T13:27:47.084Z,52.50
2018-12-26T13:30:13.721Z,52.60
2018-12-26T13:32:40.401Z,52.70
2018-12-26T13:35:07.080Z,52.70
2018-12-26T13:37:39.995Z,52.70
2018-12-26T13:40:06.662Z,52.70
2018-12-26T13:42:33.332Z,52.80
2018-12-26T13:44:59.996Z,52.80
2018-12-26T13:47:26.665Z,52.80
2018-12-26T13:49:53.321Z,52.70
2018-12-26T13:52:19.992Z,52.70
2018-12-26T13:54:46.668Z,52.70
2018-12-26T13:57:13.336Z,52.80
2018-12-26T13:59:39.993Z,52.80
2018-12-26T14:02:06.661Z,52.70
2018-12-26T14:04:33.313Z,52.90
2018-12-26T14:07:00.257Z,52.80
2018-12-26T14:09:26.913Z,52.90
2018-12-26T14:11:53.603Z,52.90
2018-12-26T14:14:20.265Z,52.90
2018-12-26T14:16:46.920Z,52.90
2018-12-26T14:19:13.576Z,52.90
2018-12-26T14:21:40.242Z,52.90
2018-12-26T14:24:06.904Z,52.90
2018-12-26T14:26:33.562Z,52.90
2018-12-26T14:29:00.220Z,52.90
2018-12-26T14:31:26.893Z,52.90
2018-12-26T14:33:53.545Z,53.00
2018-12-26T14:36:20.212Z,53.10
2018-12-26T14:38:46.876Z,53.10
2018-12-26T14:41:13.540Z,53.00
2018-12-26T14:43:40.205Z,53.00
2018-12-26T14:46:06.861Z,53.10
2018-12-26T14:48:33.524Z,53.10
2018-12-26T14:51:00.190Z,53.10
2018-12-26T14:53:26.846Z,53.10
2018-12-26T14:55:53.520Z,53.80
2018-12-26T14:58:20.156Z,53.00
2018-12-26T15:00:46.803Z,53.20
2018-12-26T15:03:13.460Z,53.10
2018-12-26T15:05:40.124Z,53.10
2018-12-26T15:08:06.802Z,53.20
2018-12-26T15:10:33.456Z,53.10
2018-12-26T15:13:00.141Z,53.20
2018-12-26T15:15:26.871Z,53.30
2018-12-26T15:17:54.784Z,53.30
2018-12-26T15:20:20.173Z,53.30
2018-12-26T15:22:46.825Z,53.20
2018-12-26T15:25:13.506Z,53.30
2018-12-26T15:27:40.180Z,53.30
2018-12-26T15:30:06.825Z,53.30
2018-12-26T15:32:33.486Z,53.30
2018-12-26T15:35:00.261Z,53.30
2018-12-26T15:37:26.846Z,53.50
2018-12-26T15:39:53.517Z,53.30
2018-12-26T15:42:20.176Z,53.30
2018-12-26T15:44:46.865Z,53.40
2018-12-26T15:47:13.513Z,53.30
2018-12-26T15:49:40.199Z,53.30
2018-12-26T15:52:06.893Z,53.40
2018-12-26T15:54:33.590Z,53.30
2018-12-26T15:57:00.322Z,53.30
2018-12-26T15:59:27.000Z,53.40
2018-12-26T16:01:53.720Z,53.40
2018-12-26T16:04:20.397Z,53.50
2018-12-26T16:06:47.060Z,53.40
2018-12-26T16:09:13.722Z,53.50
2018-12-26T16:11:40.587Z,53.50
2018-12-26T16:14:07.245Z,53.50
2018-12-26T16:16:33.905Z,53.40
2018-12-26T16:19:00.595Z,53.40
2018-12-26T16:21:27.265Z,53.40
2018-12-26T16:23:53.944Z,53.40
2018-12-26T16:26:20.794Z,53.60
2018-12-26T16:28:48.030Z,53.40
2018-12-26T16:31:15.029Z,53.50
2018-12-26T16:33:41.697Z,53.60
2018-12-26T16:36:08.418Z,53.40
2018-12-26T16:38:35.089Z,53.60
2018-12-26T16:41:01.742Z,53.70
2018-12-26T16:43:28.394Z,53.60
2018-12-26T16:45:55.092Z,53.60
2018-12-26T16:48:21.738Z,53.60
2018-12-26T16:50:48.429Z,53.60
2018-12-26T16:53:15.082Z,53.60
2018-12-26T16:55:41.725Z,53.70
2018-12-26T16:58:08.374Z,53.60
2018-12-26T17:00:35.050Z,53.60
2018-12-26T17:03:01.721Z,53.70
2018-12-26T17:05:28.368Z,53.70
2018-12-26T17:07:55.044Z,53.70
2018-12-26T17:10:21.739Z,53.60
2018-12-26T17:12:48.420Z,53.60
2018-12-26T17:15:15.082Z,53.70
2018-12-26T17:17:41.745Z,53.80
2018-12-26T17:20:08.427Z,53.80
2018-12-26T17:22:35.080Z,53.80
2018-12-26T17:25:01.729Z,53.90
2018-12-26T17:27:28.419Z,53.80
2018-12-26T17:29:55.104Z,53.90
2018-12-26T17:32:21.769Z,53.90
2018-12-26T17:34:48.464Z,53.80
2018-12-26T17:37:15.148Z,53.80
2018-12-26T17:39:41.861Z,53.90
2018-12-26T17:42:08.500Z,53.80
2018-12-26T17:44:35.139Z,53.80
2018-12-26T17:47:01.824Z,53.90
2018-12-26T17:49:28.526Z,53.90
2018-12-26T17:51:55.208Z,53.90
2018-12-26T17:54:58.304Z,54.00
2018-12-26T17:57:27.044Z,53.80
2018-12-26T18:00:02.127Z,53.90
2018-12-26T18:02:30.361Z,53.90
2018-12-26T18:04:57.041Z,54.00
2018-12-26T18:07:23.714Z,54.00
2018-12-26T18:09:50.380Z,53.90
2018-12-26T18:12:17.055Z,53.90
2018-12-26T18:14:43.710Z,53.90
2018-12-26T18:17:10.377Z,54.00
2018-12-26T18:19:37.081Z,54.00
2018-12-26T18:22:03.737Z,54.00
2018-12-26T18:24:30.389Z,54.00
2018-12-26T18:26:57.077Z,54.00
2018-12-26T18:29:23.737Z,54.00
2018-12-26T18:31:50.428Z,54.00
2018-12-26T18:34:17.072Z,54.00
2018-12-26T18:36:43.741Z,54.10
2018-12-26T18:39:10.449Z,54.10
2018-12-26T18:41:37.121Z,54.00
2018-12-26T18:44:03.770Z,54.00
2018-12-26T18:46:30.432Z,54.20
2018-12-26T18:48:57.121Z,54.20
2018-12-26T18:51:23.770Z,54.00
2018-12-26T18:53:50.429Z,54.20
2018-12-26T18:56:17.076Z,54.20
2018-12-26T18:58:43.751Z,54.20
2018-12-26T19:01:10.408Z,54.20
2018-12-26T19:03:37.077Z,54.10
2018-12-26T19:06:03.754Z,54.20
2018-12-26T19:08:30.425Z,54.20
2018-12-26T19:10:57.080Z,54.20
2018-12-26T19:13:23.746Z,54.20
2018-12-26T19:15:50.408Z,54.20
2018-12-26T19:18:17.061Z,54.30
2018-12-26T19:20:43.721Z,54.30
2018-12-26T19:23:10.380Z,54.30
2018-12-26T19:25:37.045Z,54.20
2018-12-26T19:28:03.702Z,54.30
2018-12-26T19:30:30.381Z,54.40
2018-12-26T19:32:57.045Z,54.30
2018-12-26T19:35:23.713Z,54.30
2018-12-26T19:37:50.388Z,54.40
2018-12-26T19:40:17.048Z,54.30
2018-12-26T19:42:43.708Z,54.40
2018-12-26T19:45:10.378Z,54.30
2018-12-26T19:47:37.029Z,54.30
2018-12-26T19:50:05.119Z,54.40
2018-12-26T19:52:30.523Z,54.30
2018-12-26T19:54:57.185Z,54.50
2018-12-26T19:57:23.860Z,54.40
2018-12-26T19:59:50.508Z,54.40
2018-12-26T20:02:17.173Z,54.60
2018-12-26T20:04:43.902Z,54.60
2018-12-26T20:07:10.548Z,54.50
2018-12-26T20:09:37.220Z,54.50
2018-12-26T20:12:05.672Z,54.50
2018-12-26T20:14:32.340Z,54.50
2018-12-26T20:16:59.012Z,54.50
2018-12-26T20:19:25.680Z,54.50
2018-12-26T20:21:52.340Z,54.60
2018-12-26T20:24:19.001Z,54.60
2018-12-26T20:26:45.697Z,54.60
2018-12-26T20:29:12.353Z,54.60
2018-12-26T20:31:38.997Z,54.60
2018-12-26T20:34:05.674Z,54.70
2018-12-26T20:36:32.370Z,54.70
2018-12-26T20:38:59.062Z,54.60
2018-12-26T20:41:26.003Z,54.60
2018-12-26T20:43:52.700Z,54.60
2018-12-26T20:46:19.364Z,54.70
2018-12-26T20:48:46.042Z,54.70
2018-12-26T20:51:12.688Z,54.80
2018-12-26T20:53:39.336Z,54.70
2018-12-26T20:56:06.005Z,54.70
2018-12-26T20:58:32.682Z,54.60
2018-12-26T21:00:59.336Z,54.60
2018-12-26T21:03:25.998Z,54.70
2018-12-26T21:05:52.652Z,54.80
2018-12-26T21:08:19.324Z,54.70
2018-12-26T21:10:46.320Z,54.80
2018-12-26T21:13:12.965Z,54.80
2018-12-26T21:15:39.637Z,54.80
2018-12-26T21:18:06.333Z,54.70
2018-12-26T21:20:33.021Z,54.90
2018-12-26T21:22:59.686Z,54.80
2018-12-26T21:25:26.391Z,54.80
2018-12-26T21:27:53.081Z,54.80
2018-12-26T21:30:19.769Z,54.80
2018-12-26T21:32:46.473Z,55.50
2018-12-26T21:35:13.128Z,54.80
2018-12-26T21:37:39.780Z,54.80
2018-12-26T21:40:06.843Z,54.80
2018-12-26T21:42:33.504Z,54.70
2018-12-26T21:45:00.187Z,54.80
2018-12-26T21:47:26.829Z,54.90
2018-12-26T21:49:53.513Z,54.90
2018-12-26T21:52:20.173Z,54.80
2018-12-26T21:54:47.110Z,54.80
2018-12-26T21:57:13.771Z,54.80
2018-12-26T21:59:40.444Z,54.80
2018-12-26T22:02:07.112Z,54.80
2018-12-26T22:04:33.785Z,54.90
2018-12-26T22:07:00.457Z,54.80
2018-12-26T22:09:27.137Z,55.00
2018-12-26T22:11:53.801Z,54.80
2018-12-26T22:14:20.465Z,54.90
2018-12-26T22:16:47.116Z,55.60
2018-12-26T22:19:13.781Z,54.90
2018-12-26T22:21:40.453Z,55.00
2018-12-26T22:24:07.113Z,54.90
2018-12-26T22:26:33.807Z,54.90
2018-12-26T22:29:00.456Z,55.00
2018-12-26T22:31:27.132Z,55.00
2018-12-26T22:33:53.789Z,55.10
2018-12-26T22:36:20.485Z,55.00
2018-12-26T22:38:47.157Z,55.00
2018-12-26T22:41:13.812Z,54.90
2018-12-26T22:43:40.466Z,55.00
2018-12-26T22:46:07.134Z,55.00
2018-12-26T22:48:33.817Z,55.00
2018-12-26T22:51:00.481Z,55.00
2018-12-26T22:53:27.170Z,54.90
2018-12-26T22:55:53.831Z,55.00
2018-12-26T22:58:20.488Z,55.00
2018-12-26T23:00:47.162Z,55.00
2018-12-26T23:03:13.838Z,55.00
2018-12-26T23:05:40.525Z,55.00
2018-12-26T23:08:07.204Z,55.20
2018-12-26T23:10:33.853Z,55.10
2018-12-26T23:13:00.525Z,55.10
2018-12-26T23:15:27.176Z,55.00
2018-12-26T23:17:53.837Z,55.20
2018-12-26T23:20:20.486Z,55.00
2018-12-26T23:22:47.152Z,55.00
2018-12-26T23:25:13.817Z,55.10
2018-12-26T23:27:40.461Z,55.10
2018-12-26T23:30:07.129Z,55.20
2018-12-26T23:32:33.782Z,55.00
2018-12-26T23:35:00.446Z,55.00
2018-12-26T23:37:27.112Z,55.00
2018-12-26T23:39:53.782Z,55.00
2018-12-26T23:42:20.458Z,55.00
2018-12-26T23:44:47.128Z,55.00
2018-12-26T23:47:13.805Z,55.10
2018-12-26T23:49:40.473Z,55.00
2018-12-26T23:52:07.160Z,55.10
2018-12-26T23:54:33.809Z,55.00
2018-12-26T23:57:00.484Z,55.10
2018-12-26T23:59:27.152Z,55.00
